Time;durP1;ratioP1;P1;durP2;ratioP2;P2;SDS_P1;SDS_P2;PMS_P1;PMS_P2;Temp;Humidity;BMP_temperature;BMP_pressure;BME280_temperature;BME280_humidity;BME280_pressure;Samples;Min_cycle;Max_cycle;Signal;HPM_P1;HPM_P2
2022/06/15 00:00:34;;;;;;;3.85;1.45;;;15.30;99.90;;;;;;5037913;28;20492;-67
2022/06/15 00:03:00;;;;;;;3.53;1.60;;;15.30;99.90;;;;;;5039050;28;20041;-71
2022/06/15 00:05:27;;;;;;;4.88;1.75;;;15.20;99.90;;;;;;5037195;28;20041;-71
2022/06/15 00:07:53;;;;;;;5.50;2.22;;;15.20;99.90;;;;;;5040277;28;20029;-71
2022/06/15 00:10:19;;;;;;;3.30;1.85;;;15.10;99.90;;;;;;5036653;28;20040;-68
2022/06/15 00:12:45;;;;;;;11.15;2.03;;;15.10;99.90;;;;;;5021782;28;20159;-70
2022/06/15 00:15:11;;;;;;;3.78;1.48;;;15.10;99.90;;;;;;5019628;28;20456;-69
2022/06/15 00:17:36;;;;;;;4.55;1.77;;;15.00;99.90;;;;;;5020371;28;20037;-69
2022/06/15 00:20:03;;;;;;;5.15;2.33;;;15.00;99.90;;;;;;5032834;28;20049;-71
2022/06/15 00:22:28;;;;;;;2.97;1.45;;;15.00;99.90;;;;;;5019082;28;20125;-70
2022/06/15 00:24:54;;;;;;;6.95;1.75;;;15.00;99.90;;;;;;5039568;28;20112;-70
2022/06/15 00:27:19;;;;;;;3.40;1.80;;;14.90;99.90;;;;;;5040360;28;20664;-70
2022/06/15 00:29:45;;;;;;;4.35;2.38;;;14.90;99.90;;;;;;5037036;28;20104;-72
2022/06/15 00:32:11;;;;;;;5.82;1.50;;;14.80;99.90;;;;;;5020568;28;20563;-70
2022/06/15 00:34:37;;;;;;;4.75;1.50;;;14.80;99.90;;;;;;5019551;28;20055;-69
2022/06/15 00:37:05;;;;;;;3.05;1.60;;;14.80;99.90;;;;;;5037745;28;20514;-70
2022/06/15 00:39:30;;;;;;;6.00;1.23;;;14.80;99.90;;;;;;5020900;28;20045;-70
2022/06/15 00:41:56;;;;;;;5.88;1.83;;;14.70;99.90;;;;;;5036873;28;20029;-68
2022/06/15 00:44:22;;;;;;;7.57;1.48;;;14.70;99.90;;;;;;5002902;28;1071154;-68
2022/06/15 00:46:51;;;;;;;4.60;1.67;;;14.60;99.90;;;;;;5037463;28;20029;-72
2022/06/15 00:49:28;;;;;;;7.47;1.92;;;14.60;99.90;;;;;;5015072;28;20124;-70
2022/06/15 00:52:04;;;;;;;5.07;1.95;;;14.60;99.90;;;;;;5037454;28;20033;-71
2022/06/15 00:54:30;;;;;;;5.53;2.05;;;14.60;99.90;;;;;;5037979;28;20037;-71
2022/06/15 00:56:56;;;;;;;5.07;1.45;;;14.60;99.90;;;;;;5039501;28;20112;-70
2022/06/15 00:59:26;;;;;;;11.98;1.95;;;14.50;99.90;;;;;;5036894;28;20049;-68
2022/06/15 01:01:51;;;;;;;7.57;1.98;;;14.40;99.90;;;;;;5021442;28;20044;-69
2022/06/15 01:04:20;;;;;;;6.30;2.17;;;14.40;99.90;;;;;;5036415;28;20037;-71
2022/06/15 01:06:46;;;;;;;5.22;1.77;;;14.30;99.90;;;;;;5015128;28;20029;-71
2022/06/15 01:09:15;;;;;;;5.95;2.28;;;14.30;99.90;;;;;;5021456;28;20147;-71
2022/06/15 01:12:02;;;;;;;6.57;1.95;;;14.20;99.90;;;;;;5036488;28;20049;-70
2022/06/15 01:14:51;;;;;;;4.95;2.00;;;14.20;99.90;;;;;;5035142;28;20045;-70
2022/06/15 01:17:47;;;;;;;7.47;2.20;;;14.10;99.90;;;;;;5032267;28;20037;-71
2022/06/15 01:20:51;;;;;;;2.88;1.50;;;14.10;99.90;;;;;;5039028;28;20044;-69
2022/06/15 01:23:26;;;;;;;3.78;1.90;;;14.10;99.90;;;;;;5032138;28;20125;-70
2022/06/15 01:26:10;;;;;;;6.32;1.77;;;14.10;99.90;;;;;;5036339;28;20490;-69
2022/06/15 01:28:46;;;;;;;3.92;1.70;;;14.10;99.90;;;;;;5036824;28;20044;-69
2022/06/15 01:31:15;;;;;;;3.10;1.70;;;14.10;99.90;;;;;;5039183;28;20052;-71
2022/06/15 01:34:06;;;;;;;2.90;1.70;;;14.20;99.90;;;;;;5036327;28;20038;-71
2022/06/15 01:36:47;;;;;;;9.27;1.50;;;14.20;99.90;;;;;;5034884;28;20041;-72
2022/06/15 01:39:25;;;;;;;6.38;1.60;;;14.20;99.90;;;;;;5039678;28;20409;-70
2022/06/15 01:42:11;;;;;;;10.80;2.55;;;14.20;99.90;;;;;;5037233;28;20033;-70
2022/06/15 01:44:44;;;;;;;8.38;1.88;;;14.20;99.90;;;;;;5039961;28;20047;-69
2022/06/15 01:47:16;;;;;;;3.17;1.63;;;14.10;99.90;;;;;;5025449;28;20029;-71
2022/06/15 01:50:05;;;;;;;7.00;2.05;;;14.10;99.90;;;;;;5039520;28;20113;-70
2022/06/15 01:52:36;;;;;;;2.22;1.15;;;14.10;99.90;;;;;;5041113;28;20041;-70
2022/06/15 01:55:25;;;;;;;8.07;1.65;;;14.10;99.90;;;;;;5023708;28;20065;-72
2022/06/15 01:57:54;;;;;;;2.72;1.55;;;14.10;99.90;;;;;;5019074;28;20116;-71
2022/06/15 02:00:20;;;;;;;4.93;1.40;;;14.00;99.90;;;;;;5042982;28;20672;-71
2022/06/15 02:02:54;;;;;;;4.40;1.50;;;14.00;99.90;;;;;;5039555;28;20025;-68
2022/06/15 02:05:38;;;;;;;2.95;1.38;;;14.10;99.90;;;;;;5036371;28;20554;-70
2022/06/15 02:08:27;;;;;;;5.20;2.35;;;14.20;99.90;;;;;;5040773;28;20417;-71
2022/06/15 02:10:53;;;;;;;3.17;1.50;;;14.10;99.90;;;;;;5037923;28;20111;-70
2022/06/15 02:13:30;;;;;;;3.22;1.60;;;14.10;99.90;;;;;;5042800;28;20521;-72
2022/06/15 02:16:08;;;;;;;3.03;1.30;;;14.00;99.90;;;;;;5040893;28;20033;-68
2022/06/15 02:18:35;;;;;;;3.80;1.50;;;14.10;99.90;;;;;;5022608;28;20040;-71
2022/06/15 02:21:07;;;;;;;11.68;1.95;;;14.00;99.90;;;;;;5023271;28;20038;-70
2022/06/15 02:23:34;;;;;;;3.17;1.52;;;13.90;99.90;;;;;;5022615;28;20025;-70
2022/06/15 02:26:02;;;;;;;4.00;1.60;;;13.90;99.90;;;;;;5043090;28;20033;-70
2022/06/15 02:28:49;;;;;;;5.97;2.28;;;13.90;99.90;;;;;;5023758;28;20059;-71
2022/06/15 02:31:15;;;;;;;3.92;1.50;;;13.80;99.90;;;;;;5042325;28;20091;-71
2022/06/15 02:33:49;;;;;;;6.68;1.45;;;13.90;99.90;;;;;;5034982;28;20511;-70
2022/06/15 02:36:15;;;;;;;7.95;1.83;;;13.80;99.90;;;;;;5035723;28;20504;-70
2022/06/15 02:38:44;;;;;;;4.13;1.40;;;13.80;99.90;;;;;;5042664;28;20162;-70
2022/06/15 02:41:10;;;;;;;4.18;1.80;;;13.80;99.90;;;;;;5021334;28;20029;-69
2022/06/15 02:43:39;;;;;;;5.18;1.52;;;13.80;99.90;;;;;;5041458;28;20098;-70
2022/06/15 02:46:06;;;;;;;5.30;1.45;;;13.80;99.90;;;;;;5021583;28;20043;-70
2022/06/15 02:48:31;;;;;;;3.95;1.50;;;13.90;99.90;;;;;;5042046;28;20505;-69
2022/06/15 02:51:07;;;;;;;3.70;1.40;;;13.80;99.90;;;;;;5042722;28;20033;-70
2022/06/15 02:53:34;;;;;;;6.43;1.80;;;13.80;99.90;;;;;;5021893;28;20105;-69
2022/06/15 02:56:02;;;;;;;5.80;1.83;;;13.70;99.90;;;;;;5041661;28;20058;-70
2022/06/15 02:58:32;;;;;;;2.58;1.35;;;13.70;99.90;;;;;;5023192;28;20056;-70
2022/06/15 03:00:58;;;;;;;;;;;13.60;99.90;;;;;;5023484;28;20037;-70
2022/06/15 03:03:26;;;;;;;3.83;1.67;;;13.60;99.90;;;;;;5041403;28;19920;-69
2022/06/15 03:05:52;;;;;;;8.98;1.98;;;13.60;99.90;;;;;;5022217;28;20095;-70
2022/06/15 03:08:19;;;;;;;5.10;1.48;;;13.60;99.90;;;;;;5023407;28;20041;-68
2022/06/15 03:10:45;;;;;;;4.18;1.35;;;13.50;99.90;;;;;;5039004;28;20030;-68
2022/06/15 03:13:11;;;;;;;2.30;1.20;;;13.50;99.90;;;;;;5042054;28;20082;-69
2022/06/15 03:15:37;;;;;;;6.05;1.58;;;13.50;99.90;;;;;;5020837;28;20382;-70
2022/06/15 03:18:03;;;;;;;4.68;1.27;;;13.40;99.90;;;;;;5023747;28;20048;-71
2022/06/15 03:20:29;;;;;;;4.53;1.45;;;13.40;99.90;;;;;;5040152;28;20082;-71
2022/06/15 03:22:55;;;;;;;2.28;1.10;;;13.40;99.90;;;;;;5039579;28;20072;-69
2022/06/15 03:25:20;;;;;;;5.03;1.95;;;13.40;99.90;;;;;;5042352;28;20044;-70
2022/06/15 03:27:46;;;;;;;3.70;1.52;;;13.40;99.90;;;;;;5039555;28;20038;-71
2022/06/15 03:30:12;;;;;;;6.80;2.17;;;13.40;99.90;;;;;;5041641;28;20087;-69
2022/06/15 03:32:38;;;;;;;6.43;1.38;;;13.40;99.90;;;;;;5034635;28;20033;-71
2022/06/15 03:35:04;;;;;;;4.13;1.70;;;13.30;99.90;;;;;;5023569;28;20374;-71
2022/06/15 03:37:31;;;;;;;5.72;1.80;;;13.40;99.90;;;;;;5039392;28;20065;-70
2022/06/15 03:39:56;;;;;;;5.95;1.80;;;13.30;99.90;;;;;;5040012;28;20021;-70
2022/06/15 03:42:24;;;;;;;3.60;1.40;;;13.30;99.90;;;;;;5022608;28;20043;-69
2022/06/15 03:44:50;;;;;;;7.20;2.03;;;13.30;99.90;;;;;;5039454;28;20034;-70
2022/06/15 03:47:20;;;;;;;11.98;3.30;;;13.30;99.90;;;;;;5041135;28;20105;-71
2022/06/15 03:49:50;;;;;;;8.63;3.38;;;13.30;99.90;;;;;;5021179;28;20029;-70
2022/06/15 03:52:16;;;;;;;;;;;13.30;99.90;;;;;;5026354;28;20071;-71
2022/06/15 03:54:42;;;;;;;7.97;3.20;;;13.30;99.90;;;;;;5037537;28;20027;-70
2022/06/15 03:57:10;;;;;;;6.35;3.05;;;13.30;99.90;;;;;;5041754;28;20397;-71
2022/06/15 03:59:35;;;;;;;10.63;2.83;;;13.20;99.90;;;;;;5019234;28;20581;-69
2022/06/15 04:02:01;;;;;;;6.25;3.13;;;13.30;99.90;;;;;;5040132;28;20029;-71
2022/06/15 04:04:27;;;;;;;3.15;1.58;;;13.20;99.90;;;;;;5039078;28;20417;-71
2022/06/15 04:06:52;;;;;;;4.50;2.00;;;13.20;99.90;;;;;;5021797;28;20037;-69
2022/06/15 04:09:22;;;;;;;5.00;1.92;;;13.20;99.90;;;;;;5021815;28;20029;-71
2022/06/15 04:11:58;;;;;;;5.35;2.15;;;13.20;99.90;;;;;;5021114;28;20109;-67
2022/06/15 04:14:30;;;;;;;6.07;1.90;;;13.20;99.90;;;;;;5039077;28;20037;-69
2022/06/15 04:16:56;;;;;;;6.05;2.13;;;13.20;99.90;;;;;;5039298;28;20402;-69
2022/06/15 04:19:28;;;;;;;4.63;1.92;;;13.20;99.90;;;;;;5021881;28;20045;-71
2022/06/15 04:21:55;;;;;;;6.30;1.90;;;13.10;99.90;;;;;;5038770;28;20045;-69
2022/06/15 04:24:22;;;;;;;6.75;2.55;;;13.10;99.90;;;;;;5021965;28;20041;-71
2022/06/15 04:26:48;;;;;;;3.50;2.00;;;13.10;99.90;;;;;;5039552;28;20033;-71
2022/06/15 04:29:15;;;;;;;7.47;1.98;;;13.10;99.90;;;;;;5040154;28;20040;-70
2022/06/15 04:31:41;;;;;;;5.22;1.55;;;13.10;99.90;;;;;;5034134;28;20033;-68
2022/06/15 04:34:07;;;;;;;2.53;1.50;;;13.10;99.90;;;;;;5033269;28;20063;-71
2022/06/15 04:36:33;;;;;;;5.88;1.83;;;13.10;99.90;;;;;;5014831;28;20100;-71
2022/06/15 04:38:59;;;;;;;4.78;1.77;;;13.10;99.90;;;;;;5015955;28;20053;-70
2022/06/15 04:41:25;;;;;;;5.32;1.73;;;13.10;99.90;;;;;;5015359;28;20045;-70
2022/06/15 04:43:51;;;;;;;3.03;1.60;;;13.10;99.90;;;;;;5034856;28;20065;-70
2022/06/15 04:46:17;;;;;;;8.98;2.00;;;13.10;99.90;;;;;;5017466;28;20062;-70
2022/06/15 04:48:43;;;;;;;6.05;1.40;;;13.20;99.90;;;;;;5037506;28;20060;-71
2022/06/15 04:51:22;;;;;;;6.15;2.00;;;13.20;99.90;;;;;;5039984;28;20752;-70
2022/06/15 04:53:49;;;;;;;7.45;1.60;;;13.20;99.90;;;;;;5038161;28;20033;-70
2022/06/15 04:56:15;;;;;;;8.63;1.85;;;13.30;99.90;;;;;;5014228;28;20045;-70
2022/06/15 04:58:43;;;;;;;4.43;1.80;;;13.30;99.90;;;;;;5035428;28;20037;-68
2022/06/15 05:01:09;;;;;;;5.75;1.92;;;13.40;99.90;;;;;;5030494;28;20029;-68
2022/06/15 05:03:37;;;;;;;4.63;1.33;;;13.40;99.90;;;;;;5010333;28;20033;-70
2022/06/15 05:06:13;;;;;;;7.13;1.63;;;13.40;99.90;;;;;;5025601;28;20029;-70
2022/06/15 05:08:39;;;;;;;3.70;1.40;;;13.50;99.90;;;;;;5008682;28;20075;-70
2022/06/15 05:11:04;;;;;;;3.10;1.33;;;13.70;99.90;;;;;;5011939;28;20148;-71
2022/06/15 05:13:30;;;;;;;3.63;1.42;;;13.70;99.90;;;;;;5026406;28;20038;-71
2022/06/15 05:15:56;;;;;;;3.95;1.38;;;13.80;99.90;;;;;;5008906;28;20763;-70
2022/06/15 05:18:21;;;;;;;5.75;2.03;;;13.80;99.90;;;;;;5025489;28;20041;-71
2022/06/15 05:20:47;;;;;;;8.88;2.30;;;13.90;99.90;;;;;;5026905;28;20036;-68
2022/06/15 05:23:15;;;;;;;3.22;1.15;;;13.90;99.90;;;;;;5026964;28;20497;-70
2022/06/15 05:25:42;;;;;;;4.55;1.38;;;14.00;99.90;;;;;;5007465;28;20091;-69
2022/06/15 05:28:09;;;;;;;7.15;2.47;;;14.10;99.90;;;;;;5027954;28;20057;-70
2022/06/15 05:30:35;;;;;;;5.47;1.77;;;14.10;99.90;;;;;;5010643;28;20048;-71
2022/06/15 05:33:02;;;;;;;4.95;2.00;;;14.30;99.90;;;;;;5009790;28;20029;-71
2022/06/15 05:35:28;;;;;;;7.78;1.77;;;14.50;99.90;;;;;;5008913;28;20057;-69
2022/06/15 05:37:53;;;;;;;4.20;1.35;;;14.70;99.90;;;;;;5027126;28;20065;-71
2022/06/15 05:40:19;;;;;;;5.53;1.38;;;14.90;99.90;;;;;;5028196;28;20053;-67
2022/06/15 05:42:45;;;;;;;5.45;1.63;;;15.10;99.90;;;;;;5028198;28;20490;-72
2022/06/15 05:45:10;;;;;;;3.70;1.00;;;15.60;99.90;;;;;;5027458;28;20421;-70
2022/06/15 05:47:37;;;;;;;5.03;1.42;;;16.00;99.90;;;;;;5010015;28;20115;-70
2022/06/15 05:50:03;;;;;;;6.85;1.52;;;16.40;99.90;;;;;;5025806;28;20061;-69
2022/06/15 05:52:29;;;;;;;3.10;1.10;;;16.90;99.90;;;;;;5028999;28;20481;-71
2022/06/15 05:54:58;;;;;;;8.85;1.35;;;17.20;99.90;;;;;;5028863;28;20028;-69
2022/06/15 05:57:25;;;;;;;2.78;1.13;;;17.70;99.90;;;;;;5027421;28;20033;-71
2022/06/15 05:59:52;;;;;;;2.33;1.08;;;18.20;99.90;;;;;;5026013;28;20068;-71
2022/06/15 06:02:20;;;;;;;6.03;1.17;;;18.60;99.90;;;;;;5026935;28;20112;-70
2022/06/15 06:04:46;;;;;;;6.45;0.95;;;19.00;99.90;;;;;;5027391;28;20075;-70
2022/06/15 06:07:12;;;;;;;2.38;0.85;;;19.40;99.90;;;;;;5027928;28;20079;-69
2022/06/15 06:09:38;;;;;;;9.07;1.23;;;19.50;99.90;;;;;;5025145;28;20079;-71
2022/06/15 06:12:06;;;;;;;3.65;1.00;;;19.50;99.90;;;;;;5026842;28;20033;-71
2022/06/15 06:14:31;;;;;;;6.53;0.70;;;19.60;99.90;;;;;;5025228;28;20033;-70
2022/06/15 06:16:57;;;;;;;2.13;0.90;;;19.90;99.90;;;;;;5026831;28;20040;-69
2022/06/15 06:19:22;;;;;;;7.13;1.50;;;19.80;99.90;;;;;;5008512;28;20130;-71
2022/06/15 06:21:48;;;;;;;2.38;0.80;;;19.90;99.90;;;;;;5028706;28;20034;-71
2022/06/15 06:24:14;;;;;;;5.30;1.58;;;19.90;99.90;;;;;;5028919;28;20125;-67
2022/06/15 06:26:42;;;;;;;5.38;1.05;;;19.90;99.90;;;;;;5029018;28;20025;-70
2022/06/15 06:29:12;;;;;;;6.25;1.25;;;20.00;99.90;;;;;;5011994;28;20665;-71
2022/06/15 06:31:38;;;;;;;;;;;20.10;99.90;;;;;;5010182;28;20104;-71
2022/06/15 06:34:04;;;;;;;4.50;1.15;;;20.20;99.90;;;;;;5028930;28;20003;-70
2022/06/15 06:36:44;;;;;;;2.15;1.10;;;20.30;99.90;;;;;;5031079;28;20146;-71
2022/06/15 06:39:13;;;;;;;;;;;20.50;99.90;;;;;;5031060;28;20562;-71
2022/06/15 06:41:39;;;;;;;6.95;1.20;;;20.90;99.80;;;;;;5010200;28;19917;-70
2022/06/15 06:44:05;;;;;;;4.82;1.25;;;21.20;99.90;;;;;;5011676;28;20442;-71
2022/06/15 06:46:35;;;;;;;4.18;1.00;;;21.50;99.90;;;;;;5021497;28;20537;-70
2022/06/15 06:49:01;;;;;;;;;;;21.90;99.60;;;;;;5029094;28;20039;-71
2022/06/15 06:51:27;;;;;;;5.65;1.17;;;22.00;98.80;;;;;;5011970;28;20284;-72
2022/06/15 06:53:53;;;;;;;2.75;0.63;;;22.40;99.30;;;;;;5011258;28;20036;-72
2022/06/15 06:56:19;;;;;;;2.55;0.88;;;22.50;97.90;;;;;;5030342;28;20038;-71
2022/06/15 06:58:44;;;;;;;2.03;0.98;;;22.80;99.40;;;;;;5029964;28;20037;-70
2022/06/15 07:01:10;;;;;;;3.05;0.85;;;23.10;98.50;;;;;;5028524;28;20026;-71
2022/06/15 07:03:35;;;;;;;5.15;1.30;;;23.50;96.30;;;;;;5029450;28;20059;-71
2022/06/15 07:06:04;;;;;;;15.52;1.33;;;24.10;95.50;;;;;;5027949;28;20422;-71
2022/06/15 07:08:30;;;;;;;5.25;1.15;;;24.90;94.00;;;;;;5030156;28;20045;-70
2022/06/15 07:10:56;;;;;;;4.10;2.08;;;25.80;93.90;;;;;;5026736;28;20064;-72
2022/06/15 07:13:21;;;;;;;5.25;1.40;;;26.60;91.20;;;;;;5026101;28;20426;-72
2022/06/15 07:15:47;;;;;;;8.80;1.25;;;28.10;88.60;;;;;;5034772;28;20029;-71
2022/06/15 07:18:12;;;;;;;15.63;1.35;;;28.60;87.00;;;;;;5032432;28;20124;-71
2022/06/15 07:20:38;;;;;;;4.13;1.42;;;29.40;84.50;;;;;;5014826;28;20044;-71
2022/06/15 07:23:04;;;;;;;3.22;0.88;;;30.30;78.20;;;;;;5029124;28;20030;-70
2022/06/15 07:25:30;;;;;;;6.40;1.48;;;30.90;78.80;;;;;;5030725;28;20176;-70
2022/06/15 07:27:56;;;;;;;10.35;1.63;;;31.90;71.40;;;;;;5024233;28;20041;-71
2022/06/15 07:30:24;;;;;;;4.72;1.17;;;31.30;68.00;;;;;;5030906;28;20033;-70
2022/06/15 07:32:50;;;;;;;5.53;1.15;;;31.50;69.00;;;;;;5028168;28;20063;-71
2022/06/15 07:35:21;;;;;;;3.72;1.38;;;32.50;64.50;;;;;;5010644;28;20041;-70
2022/06/15 07:37:48;;;;;;;7.15;1.70;;;33.30;59.90;;;;;;5026821;28;20025;-69
2022/06/15 07:40:14;;;;;;;6.10;1.75;;;33.00;61.40;;;;;;5009862;28;20091;-72
2022/06/15 07:42:40;;;;;;;6.28;1.20;;;32.80;62.70;;;;;;5026761;28;20025;-70
2022/06/15 07:45:08;;;;;;;2.72;1.00;;;32.90;57.50;;;;;;5013422;28;20505;-70
2022/06/15 07:50:18;;;;;;;7.25;2.05;;;33.20;58.40;;;;;;5028643;28;20682;-68
2022/06/15 07:52:46;;;;;;;3.80;1.20;;;33.00;54.90;;;;;;5027998;28;20022;-71
2022/06/15 07:55:19;;;;;;;3.30;1.30;;;33.60;55.20;;;;;;5025777;28;20025;-70
2022/06/15 07:57:45;;;;;;;3.83;1.20;;;33.20;54.00;;;;;;5014570;28;20029;-68
2022/06/15 08:00:12;;;;;;;4.20;1.40;;;33.00;56.30;;;;;;5010549;28;20041;-69
2022/06/15 08:02:38;;;;;;;6.30;1.10;;;32.70;56.10;;;;;;5031578;28;20404;-70
2022/06/15 08:05:04;;;;;;;8.40;1.30;;;32.70;55.60;;;;;;5028495;28;20504;-69
2022/06/15 08:07:30;;;;;;;5.13;1.30;;;32.60;54.20;;;;;;5026031;28;20037;-68
2022/06/15 08:09:56;;;;;;;4.47;1.30;;;32.50;56.10;;;;;;5013613;28;20861;-69
2022/06/15 08:12:23;;;;;;;5.25;1.58;;;32.20;54.50;;;;;;5025761;28;20048;-70
2022/06/15 08:14:57;;;;;;;7.10;1.08;;;31.90;55.10;;;;;;5029842;28;20040;-68
2022/06/15 08:17:30;;;;;;;3.22;1.42;;;31.60;55.60;;;;;;5024196;28;20060;-70
2022/06/15 08:20:00;;;;;;;2.50;1.17;;;31.50;53.00;;;;;;5007990;28;20044;-69
2022/06/15 08:22:27;;;;;;;5.15;0.95;;;30.90;53.40;;;;;;5026978;28;20489;-69
2022/06/15 08:24:54;;;;;;;4.95;1.05;;;30.30;54.80;;;;;;5022996;28;20539;-70
2022/06/15 08:27:22;;;;;;;2.30;0.60;;;29.20;56.40;;;;;;5033600;28;20041;-67
2022/06/15 08:29:49;;;;;;;8.10;0.70;;;28.60;58.30;;;;;;5026214;28;20034;-68
2022/06/15 08:32:17;;;;;;;1.92;0.80;;;27.80;56.70;;;;;;5017043;28;20048;-68
2022/06/15 08:34:43;;;;;;;3.15;0.50;;;27.50;56.70;;;;;;5011723;28;20041;-70
2022/06/15 08:37:13;;;;;;;3.92;0.88;;;27.20;57.80;;;;;;5034525;28;20829;-70
2022/06/15 08:39:39;;;;;;;6.20;0.93;;;26.70;60.80;;;;;;5008600;28;20490;-69
2022/06/15 08:42:18;;;;;;;2.42;0.60;;;26.30;59.30;;;;;;5029293;28;20032;-69
2022/06/15 08:45:03;;;;;;;5.57;1.00;;;26.00;60.50;;;;;;5026329;28;20928;-70
2022/06/15 08:47:31;;;;;;;3.97;1.02;;;25.60;60.50;;;;;;5013363;28;20048;-70
2022/06/15 08:50:08;;;;;;;8.35;1.00;;;25.60;62.20;;;;;;5008816;28;20607;-68
2022/06/15 08:52:46;;;;;;;3.50;0.65;;;25.40;62.60;;;;;;5012654;28;20033;-67
2022/06/15 08:55:37;;;;;;;4.22;0.73;;;25.40;63.30;;;;;;5029392;28;20083;-70
2022/06/15 08:58:25;;;;;;;7.97;0.80;;;25.30;62.20;;;;;;5027393;28;20624;-69
2022/06/15 09:00:56;;;;;;;4.50;0.80;;;25.20;61.20;;;;;;5030374;28;20048;-70
2022/06/15 09:03:43;;;;;;;1.70;0.40;;;25.40;60.70;;;;;;5024040;28;20056;-70
2022/06/15 09:06:32;;;;;;;4.07;1.05;;;25.40;63.70;;;;;;5027583;28;20029;-69
2022/06/15 09:09:24;;;;;;;5.47;0.77;;;25.10;61.90;;;;;;5024470;28;20037;-69
2022/06/15 09:15:01;;;;;;;2.67;0.70;;;25.00;63.20;;;;;;5025578;28;20059;-69
2022/06/15 09:17:28;;;;;;;3.35;1.02;;;24.80;62.60;;;;;;5028078;28;20515;-70
2022/06/15 09:20:05;;;;;;;2.90;0.95;;;24.80;64.10;;;;;;5029289;28;20037;-69
2022/06/15 09:22:35;;;;;;;7.38;1.00;;;24.80;63.00;;;;;;5025473;28;20045;-68
2022/06/15 09:25:07;;;;;;;4.25;0.60;;;24.80;64.20;;;;;;5009125;28;20084;-68
2022/06/15 09:27:41;;;;;;;2.28;0.73;;;24.70;65.20;;;;;;5029307;28;20034;-68
2022/06/15 09:30:11;;;;;;;3.45;1.20;;;24.70;64.20;;;;;;5029404;28;20037;-68
2022/06/15 09:32:54;;;;;;;2.40;0.57;;;24.60;65.30;;;;;;5027077;28;20049;-68
2022/06/15 09:35:37;;;;;;;5.07;0.65;;;24.80;65.90;;;;;;5023331;28;20566;-69
2022/06/15 09:38:06;;;;;;;2.65;0.75;;;24.80;65.20;;;;;;5027436;28;20468;-68
2022/06/15 09:40:54;;;;;;;2.75;0.95;;;24.70;64.40;;;;;;5032016;28;20036;-67
2022/06/15 09:43:53;;;;;;;4.72;1.00;;;24.80;63.70;;;;;;5010294;28;20120;-70
2022/06/15 09:46:55;;;;;;;2.25;1.00;;;24.70;64.40;;;;;;5025041;28;20034;-70
2022/06/15 09:49:45;;;;;;;3.67;0.50;;;24.60;64.30;;;;;;5022578;28;20044;-70
2022/06/15 09:52:54;;;;;;;3.75;0.85;;;24.80;64.80;;;;;;5011889;28;20506;-71
2022/06/15 09:55:29;;;;;;;5.78;0.95;;;24.90;63.20;;;;;;5019235;28;20037;-69
2022/06/15 09:57:55;;;;;;;6.30;1.00;;;25.00;65.10;;;;;;5030690;28;20448;-69
2022/06/15 10:00:21;;;;;;;5.45;0.93;;;25.40;65.00;;;;;;5027912;28;20120;-67
2022/06/15 10:02:52;;;;;;;2.28;0.52;;;25.60;61.20;;;;;;5034938;28;20037;-69
2022/06/15 10:05:30;;;;;;;5.20;1.00;;;25.30;63.00;;;;;;5031390;28;20040;-68
2022/06/15 10:07:57;;;;;;;4.80;1.10;;;25.30;62.40;;;;;;5031816;28;20032;-68
2022/06/15 10:10:39;;;;;;;3.42;0.80;;;25.30;62.90;;;;;;5029564;28;20147;-70
2022/06/15 10:13:23;;;;;;;3.83;0.82;;;25.20;63.30;;;;;;5027653;28;20397;-69
2022/06/15 10:16:01;;;;;;;3.63;1.40;;;25.20;62.70;;;;;;5026058;28;20039;-70
2022/06/15 10:18:43;;;;;;;1.65;0.60;;;25.20;61.40;;;;;;5013301;28;20115;-70
2022/06/15 10:21:15;;;;;;;4.18;0.55;;;25.30;61.30;;;;;;5034379;28;20044;-69
2022/06/15 10:23:56;;;;;;;2.83;0.95;;;25.30;63.80;;;;;;5029117;28;20037;-67
2022/06/15 10:26:28;;;;;;;4.20;0.90;;;25.30;62.50;;;;;;5028908;28;20045;-69
2022/06/15 10:28:55;;;;;;;1.95;0.85;;;25.20;64.00;;;;;;5012759;28;20137;-69
2022/06/15 10:31:28;;;;;;;3.45;0.98;;;25.20;63.70;;;;;;5012709;28;20037;-69
2022/06/15 10:33:55;;;;;;;2.67;0.98;;;25.20;64.40;;;;;;5025752;28;20047;-70
2022/06/15 10:36:22;;;;;;;4.50;0.82;;;25.20;64.20;;;;;;5017909;28;20120;-68
2022/06/15 10:38:58;;;;;;;4.97;0.90;;;25.10;63.30;;;;;;5027077;28;20025;-67
2022/06/15 10:41:45;;;;;;;3.55;0.68;;;25.20;63.80;;;;;;5011313;28;20037;-70
2022/06/15 10:44:14;;;;;;;9.52;1.27;;;25.10;64.90;;;;;;5030907;28;20086;-70
2022/06/15 10:46:52;;;;;;;4.55;1.08;;;25.30;65.50;;;;;;5012499;28;20053;-70
2022/06/15 10:49:18;;;;;;;4.43;1.00;;;25.40;64.00;;;;;;5029924;28;20033;-70
2022/06/15 10:51:44;;;;;;;3.92;0.93;;;25.40;62.00;;;;;;5013351;28;20465;-70
2022/06/15 11:02:06;;;;;;;6.57;0.88;;;25.50;64.90;;;;;;5031721;28;20038;-69
2022/06/15 11:03:16;;;;;;;2.72;0.50;;;25.30;64.60;;;;;;5027760;28;20044;-67
2022/06/15 11:05:44;;;;;;;3.58;0.82;;;25.40;65.40;;;;;;5029068;28;20087;-67
2022/06/15 11:08:20;;;;;;;2.85;0.90;;;25.40;65.80;;;;;;5029071;28;20502;-69
2022/06/15 11:10:50;;;;;;;3.70;0.68;;;25.40;65.10;;;;;;5025607;28;20045;-70
2022/06/15 11:13:39;;;;;;;2.47;0.75;;;25.40;65.00;;;;;;5027828;28;21111;-67
2022/06/15 11:19:11;;;;;;;7.47;0.95;;;25.30;65.30;;;;;;5026699;28;20081;-69
2022/06/15 11:21:42;;;;;;;3.60;0.52;;;25.20;64.50;;;;;;5034306;28;20033;-69
2022/06/15 11:24:16;;;;;;;5.85;0.60;;;25.30;65.90;;;;;;5040391;28;20064;-69
2022/06/15 11:27:00;;;;;;;1.95;0.55;;;25.40;66.60;;;;;;5035273;28;20083;-66
2022/06/15 11:29:37;;;;;;;4.55;0.70;;;25.30;65.20;;;;;;5036537;28;20537;-71
2022/06/15 11:32:37;;;;;;;5.13;0.82;;;25.40;67.10;;;;;;5043173;28;20126;-69
2022/06/15 11:35:08;;;;;;;2.75;1.00;;;25.40;65.40;;;;;;5019786;28;20120;-70
2022/06/15 11:37:57;;;;;;;4.00;0.90;;;25.40;64.60;;;;;;5044027;28;20065;-69
2022/06/15 11:40:44;;;;;;;3.38;0.70;;;25.40;66.10;;;;;;5035999;28;20565;-67
2022/06/15 11:43:12;;;;;;;3.53;0.60;;;25.50;65.50;;;;;;5038763;28;20037;-70
2022/06/15 11:45:49;;;;;;;2.25;0.63;;;25.70;66.50;;;;;;5019243;28;20040;-68
2022/06/15 11:48:37;;;;;;;3.08;0.82;;;25.80;65.10;;;;;;5031979;28;20060;-70
2022/06/15 11:51:32;;;;;;;4.45;1.10;;;25.90;62.60;;;;;;5037476;28;20060;-69
2022/06/15 11:54:09;;;;;;;2.63;0.63;;;25.90;64.80;;;;;;5034446;28;20072;-69
2022/06/15 11:56:58;;;;;;;3.75;1.00;;;25.80;63.20;;;;;;5037958;28;20037;-70
2022/06/15 11:59:24;;;;;;;3.10;0.85;;;25.70;63.60;;;;;;5039124;28;20064;-70
2022/06/15 12:02:07;;;;;;;3.20;0.60;;;25.70;64.80;;;;;;5038126;28;20065;-72
2022/06/15 12:05:02;;;;;;;1.25;0.55;;;25.60;64.70;;;;;;5044605;28;20413;-68
2022/06/15 12:07:43;;;;;;;2.83;0.85;;;25.50;63.50;;;;;;5019295;28;20045;-68
2022/06/15 12:10:39;;;;;;;3.28;0.70;;;25.60;64.60;;;;;;5036612;28;20064;-69
2022/06/15 12:13:39;;;;;;;2.28;0.52;;;25.50;62.80;;;;;;5020663;28;20163;-69
2022/06/15 12:16:27;;;;;;;4.03;0.85;;;25.40;64.00;;;;;;5016842;28;20044;-70
2022/06/15 12:19:04;;;;;;;2.03;0.60;;;25.30;64.40;;;;;;5035671;28;20038;-69
2022/06/15 12:21:40;;;;;;;1.95;0.50;;;25.20;65.70;;;;;;5019946;28;20041;-68
2022/06/15 12:24:15;;;;;;;6.25;1.10;;;25.20;65.30;;;;;;5039571;28;20564;-66
2022/06/15 12:26:44;;;;;;;7.53;1.40;;;25.20;65.20;;;;;;5015682;28;20037;-69
2022/06/15 12:29:25;;;;;;;4.93;0.80;;;25.20;66.10;;;;;;5032793;28;20317;-69
2022/06/15 12:34:54;;;;;;;2.33;0.57;;;25.40;64.90;;;;;;5031155;28;20501;-70
2022/06/15 12:37:29;;;;;;;2.05;0.60;;;25.40;66.20;;;;;;5031717;28;20036;-68
2022/06/15 12:40:13;;;;;;;4.72;1.42;;;25.50;63.10;;;;;;5017941;28;20051;-69
2022/06/15 12:42:44;;;;;;;2.03;0.60;;;25.50;63.30;;;;;;5034348;28;20091;-69
2022/06/15 12:45:26;;;;;;;5.18;0.68;;;25.40;65.40;;;;;;5030734;28;20037;-68
2022/06/15 12:47:56;;;;;;;2.13;0.57;;;25.30;65.00;;;;;;5035501;28;20041;-67
2022/06/15 12:50:30;;;;;;;;;;;25.10;64.40;;;;;;5027203;28;20040;-66
2022/06/15 12:53:11;;;;;;;4.15;0.60;;;25.10;66.40;;;;;;5033851;28;20369;-67
2022/06/15 12:55:52;;;;;;;6.25;0.95;;;25.20;67.50;;;;;;5031493;28;20494;-68
2022/06/15 12:58:52;;;;;;;4.93;0.73;;;25.30;65.90;;;;;;5033919;28;20060;-69
2022/06/15 13:01:26;;;;;;;;;;;25.40;65.30;;;;;;5034052;28;20559;-69
2022/06/15 13:04:37;;;;;;;6.68;0.77;;;25.30;66.50;;;;;;5036697;28;19913;-68
2022/06/15 13:07:23;;;;;;;2.63;0.60;;;25.30;67.00;;;;;;5027055;28;20374;-69
2022/06/15 13:10:07;;;;;;;5.20;0.82;;;25.20;66.60;;;;;;5033075;28;20040;-70
2022/06/15 13:12:54;;;;;;;4.75;0.70;;;25.20;66.40;;;;;;5038446;28;20055;-69
2022/06/15 13:15:41;;;;;;;2.97;0.40;;;25.20;67.50;;;;;;5032774;28;20049;-70
2022/06/15 13:18:13;;;;;;;2.30;0.50;;;25.20;68.30;;;;;;5031344;28;20034;-68
2022/06/15 13:20:50;;;;;;;2.92;0.50;;;25.30;67.20;;;;;;5030900;28;20033;-69
2022/06/15 13:23:16;;;;;;;2.20;0.75;;;25.30;66.80;;;;;;5019217;28;20518;-68
2022/06/15 13:25:52;;;;;;;3.03;0.73;;;25.40;65.90;;;;;;5018282;28;20041;-69
2022/06/15 13:28:20;;;;;;;1.65;0.52;;;25.40;65.20;;;;;;5030800;28;20436;-69
2022/06/15 13:30:48;;;;;;;3.75;1.00;;;25.40;65.60;;;;;;5025207;28;20029;-69